createdAt,value
2018-07-24T00:00:09.623Z,11.93
2018-07-24T00:02:38.043Z,10.03
2018-07-24T00:05:06.367Z,10.50
2018-07-24T00:07:34.669Z,11.57
2018-07-24T00:10:04.412Z,9.57
2018-07-24T00:12:32.880Z,10.13
2018-07-24T00:15:01.716Z,10.10
2018-07-24T00:17:30.050Z,9.50
2018-07-24T00:19:58.327Z,9.13
2018-07-24T00:22:26.652Z,9.77
2018-07-24T00:24:54.985Z,8.10
2018-07-24T00:27:23.302Z,9.30
2018-07-24T00:29:51.614Z,10.33
2018-07-24T00:32:19.908Z,10.80
2018-07-24T00:34:48.216Z,11.50
2018-07-24T00:37:16.555Z,11.53
2018-07-24T00:39:44.872Z,11.07
2018-07-24T00:42:13.188Z,11.53
2018-07-24T00:44:41.496Z,10.70
2018-07-24T00:47:09.952Z,11.77
2018-07-24T00:49:38.288Z,11.10
2018-07-24T00:52:06.952Z,11.07
2018-07-24T00:54:35.260Z,11.63
2018-07-24T00:57:03.932Z,11.13
2018-07-24T00:59:32.936Z,9.47
2018-07-24T01:02:01.296Z,10.40
2018-07-24T01:04:29.602Z,9.27
2018-07-24T01:06:57.941Z,11.57
2018-07-24T01:09:26.303Z,11.50
2018-07-24T01:11:54.612Z,10.63
2018-07-24T01:14:22.951Z,10.30
2018-07-24T01:16:51.277Z,10.63
2018-07-24T01:19:19.577Z,11.00
2018-07-24T01:21:47.884Z,10.97
2018-07-24T01:24:16.480Z,11.33
2018-07-24T01:26:44.808Z,11.87
2018-07-24T01:29:13.176Z,11.10
2018-07-24T01:31:41.532Z,10.87
2018-07-24T01:34:09.832Z,10.97
2018-07-24T01:36:38.153Z,11.07
2018-07-24T01:39:08.470Z,11.37
2018-07-24T01:41:36.781Z,11.27
2018-07-24T01:44:05.093Z,11.53
2018-07-24T01:46:33.448Z,11.50
2018-07-24T01:49:01.756Z,12.07
2018-07-24T01:51:30.140Z,11.10
2018-07-24T01:53:59.125Z,11.73
2018-07-24T01:56:27.444Z,11.30
2018-07-24T01:58:55.755Z,13.07
2018-07-24T02:01:24.052Z,11.50
2018-07-24T02:03:52.387Z,11.70
2018-07-24T02:06:20.693Z,12.00
2018-07-24T02:08:49.026Z,10.90
2018-07-24T02:11:17.477Z,10.20
2018-07-24T02:13:45.840Z,12.87
2018-07-24T02:16:14.203Z,11.47
2018-07-24T02:18:42.508Z,11.20
2018-07-24T02:21:11.192Z,10.87
2018-07-24T02:23:39.552Z,10.80
2018-07-24T02:26:07.888Z,11.30
2018-07-24T02:28:36.195Z,10.13
2018-07-24T02:31:04.588Z,10.70
2018-07-24T02:33:32.911Z,10.33
2018-07-24T02:36:01.229Z,11.37
2018-07-24T02:38:29.555Z,11.47
2018-07-24T02:40:57.892Z,11.20
2018-07-24T02:43:26.209Z,9.63
2018-07-24T02:45:55.211Z,10.47
2018-07-24T02:48:23.532Z,10.23
2018-07-24T02:50:51.894Z,10.97
2018-07-24T02:53:20.204Z,10.80
2018-07-24T02:55:48.922Z,12.37
2018-07-24T02:58:17.256Z,10.30
2018-07-24T03:00:45.561Z,11.80
2018-07-24T03:03:13.873Z,11.30
2018-07-24T03:05:42.191Z,11.90
2018-07-24T03:08:10.516Z,12.10
2018-07-24T03:10:38.813Z,12.23
2018-07-24T03:13:07.157Z,11.37
2018-07-24T03:15:35.457Z,10.70
2018-07-24T03:18:03.767Z,10.73
2018-07-24T03:20:32.114Z,10.60
2018-07-24T03:23:00.419Z,12.03
2018-07-24T03:25:28.776Z,11.67
2018-07-24T03:27:57.084Z,14.47
2018-07-24T03:30:25.395Z,12.43
2018-07-24T03:32:53.756Z,12.60
2018-07-24T03:35:22.116Z,12.03
2018-07-24T03:37:50.531Z,11.93
2018-07-24T03:40:18.832Z,11.47
2018-07-24T03:42:47.138Z,11.77
2018-07-24T03:45:15.478Z,10.80
2018-07-24T03:47:43.779Z,11.60
2018-07-24T03:50:12.114Z,11.70
2018-07-24T03:52:41.124Z,11.83
2018-07-24T03:55:09.558Z,12.37
2018-07-24T03:57:37.909Z,12.77
2018-07-24T04:00:06.692Z,13.90
2018-07-24T04:02:35.016Z,13.93
2018-07-24T04:05:03.804Z,13.20
2018-07-24T04:07:32.191Z,13.40
2018-07-24T04:10:00.504Z,15.23
2018-07-24T04:12:28.796Z,15.40
2018-07-24T04:14:57.144Z,15.40
2018-07-24T04:17:25.450Z,16.23
2018-07-24T04:19:53.744Z,15.13
2018-07-24T04:22:22.979Z,15.20
2018-07-24T04:24:52.012Z,16.00
2018-07-24T04:27:20.444Z,15.90
2018-07-24T04:29:48.879Z,16.50
2018-07-24T04:32:17.177Z,15.30
2018-07-24T04:34:45.483Z,16.97
2018-07-24T04:37:13.797Z,17.03
2018-07-24T04:39:42.140Z,17.07
2018-07-24T04:42:10.464Z,17.40
2018-07-24T04:44:38.780Z,16.60
2018-07-24T04:47:07.111Z,16.70
2018-07-24T04:49:35.399Z,17.47
2018-07-24T04:52:04.076Z,18.73
2018-07-24T04:54:32.399Z,17.80
2018-07-24T04:57:00.708Z,18.73
2018-07-24T04:59:29.099Z,18.60
2018-07-24T05:01:57.395Z,18.40
2018-07-24T05:04:25.772Z,18.37
2018-07-24T05:06:54.108Z,18.80
2018-07-24T05:09:22.460Z,19.00
2018-07-24T05:11:50.808Z,19.60
2018-07-24T05:14:19.180Z,18.10
2018-07-24T05:16:47.529Z,19.13
2018-07-24T05:19:15.824Z,18.70
2018-07-24T05:21:46.044Z,18.53
2018-07-24T05:24:15.123Z,19.80
2018-07-24T05:26:43.436Z,19.47
2018-07-24T05:29:11.752Z,18.40
2018-07-24T05:31:40.064Z,17.73
2018-07-24T05:34:08.376Z,21.17
2018-07-24T05:36:36.732Z,18.90
2018-07-24T05:39:07.842Z,20.17
2018-07-24T05:41:36.187Z,19.00
2018-07-24T05:44:04.572Z,19.47
2018-07-24T05:46:32.901Z,19.63
2018-07-24T05:49:01.357Z,19.40
2018-07-24T05:51:30.614Z,19.30
2018-07-24T05:53:58.995Z,16.87
2018-07-24T05:56:27.308Z,16.90
2018-07-24T05:58:55.627Z,16.30
2018-07-24T06:01:23.985Z,15.23
2018-07-24T06:03:52.944Z,14.67
2018-07-24T06:06:21.362Z,15.07
2018-07-24T06:08:49.673Z,14.30
2018-07-24T06:11:17.975Z,15.50
2018-07-24T06:13:46.285Z,15.83
2018-07-24T06:16:14.588Z,15.10
2018-07-24T06:18:42.908Z,15.30
2018-07-24T06:21:11.208Z,14.60
2018-07-24T06:23:39.693Z,15.13
2018-07-24T06:26:07.937Z,16.23
2018-07-24T06:28:36.950Z,15.37
2018-07-24T06:31:05.308Z,14.80
2018-07-24T06:33:33.612Z,16.80
2018-07-24T06:36:01.921Z,14.93
2018-07-24T06:38:30.256Z,15.57
2018-07-24T06:40:58.604Z,16.10
2018-07-24T06:43:26.940Z,15.77
2018-07-24T06:45:55.272Z,12.77
2018-07-24T06:48:23.820Z,15.50
2018-07-24T06:50:52.164Z,14.80
2018-07-24T06:53:20.512Z,12.63
2018-07-24T06:55:48.863Z,15.07
2018-07-24T06:58:17.191Z,15.80
2018-07-24T07:00:45.487Z,12.97
2018-07-24T07:03:13.940Z,13.40
2018-07-24T07:05:42.220Z,13.67
2018-07-24T07:08:10.637Z,13.60
2018-07-24T07:10:38.968Z,11.60
2018-07-24T07:13:07.388Z,10.70
2018-07-24T07:15:36.068Z,15.73
2018-07-24T07:18:04.520Z,17.00
2018-07-24T07:20:33.015Z,17.73
2018-07-24T07:23:01.385Z,15.23
2018-07-24T07:25:30.276Z,11.50
2018-07-24T07:27:58.613Z,10.47
2018-07-24T07:30:26.928Z,12.03
2018-07-24T07:32:55.241Z,13.10
2018-07-24T07:35:23.701Z,11.03
2018-07-24T07:37:52.131Z,10.30
2018-07-24T07:40:20.477Z,9.73
2018-07-24T07:42:48.759Z,11.77
2018-07-24T07:45:17.145Z,10.80
2018-07-24T07:47:45.415Z,9.10
2018-07-24T07:50:13.874Z,9.00
2018-07-24T07:52:42.804Z,8.17
2018-07-24T07:55:11.123Z,8.03
2018-07-24T07:57:39.428Z,7.13
2018-07-24T08:00:08.000Z,7.60
2018-07-24T08:02:36.398Z,7.30
2018-07-24T08:05:05.108Z,7.43
2018-07-24T08:07:33.437Z,6.70
2018-07-24T08:10:02.553Z,7.37
2018-07-24T08:12:30.852Z,5.60
2018-07-24T08:14:59.176Z,6.87
2018-07-24T08:17:27.495Z,7.70
2018-07-24T08:19:56.508Z,8.20
2018-07-24T08:22:24.932Z,7.33
2018-07-24T08:24:53.191Z,8.80
2018-07-24T08:27:21.572Z,8.13
2018-07-24T08:29:49.867Z,8.40
2018-07-24T08:32:18.187Z,8.00
2018-07-24T08:34:46.508Z,9.30
2018-07-24T08:37:14.839Z,9.90
2018-07-24T08:39:43.217Z,9.07
2018-07-24T08:42:12.024Z,6.77
2018-07-24T08:44:40.403Z,7.50
2018-07-24T08:47:08.681Z,8.80
2018-07-24T08:49:36.989Z,7.43
2018-07-24T08:52:05.299Z,7.00
2018-07-24T08:54:33.782Z,6.80
2018-07-24T08:57:02.651Z,5.90
2018-07-24T08:59:31.165Z,5.00
2018-07-24T09:02:00.011Z,5.20
2018-07-24T09:04:28.484Z,5.20
2018-07-24T09:06:57.185Z,4.83
2018-07-24T09:09:25.480Z,7.10
2018-07-24T09:11:53.816Z,6.00
2018-07-24T09:14:22.123Z,6.20
2018-07-24T09:16:50.411Z,5.00
2018-07-24T09:19:18.732Z,5.03
2018-07-24T09:21:47.025Z,4.70
2018-07-24T09:24:15.333Z,4.07
2018-07-24T09:26:43.663Z,4.63
2018-07-24T09:29:12.000Z,3.87
2018-07-24T09:31:40.367Z,4.20
2018-07-24T09:34:08.659Z,4.57
2018-07-24T09:36:37.012Z,3.13
2018-07-24T09:39:08.020Z,4.23
2018-07-24T09:41:37.575Z,3.80
2018-07-24T09:44:06.056Z,3.17
2018-07-24T09:46:34.387Z,3.00
2018-07-24T09:49:02.811Z,4.10
2018-07-24T09:51:31.108Z,4.13
2018-07-24T09:53:59.411Z,3.70
2018-07-24T09:56:27.785Z,3.67
2018-07-24T09:58:56.068Z,3.30
2018-07-24T10:01:29.980Z,4.27
2018-07-24T10:03:58.548Z,3.67
2018-07-24T10:06:26.836Z,3.90
2018-07-24T10:08:55.449Z,3.53
2018-07-24T10:11:23.810Z,2.97
2018-07-24T10:13:52.100Z,3.40
2018-07-24T10:16:20.398Z,3.40
2018-07-24T10:18:50.265Z,3.27
2018-07-24T10:21:18.564Z,3.23
2018-07-24T10:23:46.876Z,2.97
2018-07-24T10:26:15.172Z,4.77
2018-07-24T10:28:43.518Z,3.67
2018-07-24T10:31:12.503Z,3.33
2018-07-24T10:33:40.852Z,3.20
2018-07-24T10:36:09.193Z,3.10
2018-07-24T10:38:37.625Z,3.90
2018-07-24T10:41:05.956Z,3.30
2018-07-24T10:43:34.459Z,2.73
2018-07-24T10:46:02.777Z,3.40
2018-07-24T10:48:31.133Z,2.90
2018-07-24T10:50:59.456Z,3.20
2018-07-24T10:53:27.777Z,2.87
2018-07-24T10:55:56.337Z,4.70
2018-07-24T10:58:24.639Z,6.50
2018-07-24T11:00:52.986Z,4.20
2018-07-24T11:03:21.312Z,3.10
2018-07-24T11:05:49.633Z,7.30
2018-07-24T11:08:17.952Z,4.20
2018-07-24T11:10:46.256Z,3.50
2018-07-24T11:13:14.620Z,2.93
2018-07-24T11:15:43.465Z,4.63
2018-07-24T11:18:11.759Z,4.20
2018-07-24T11:20:40.097Z,4.77
2018-07-24T11:23:08.503Z,3.70
2018-07-24T11:25:36.832Z,3.60
2018-07-24T11:28:05.153Z,3.00
2018-07-24T11:30:33.492Z,4.90
2018-07-24T11:33:02.210Z,2.83
2018-07-24T11:35:30.518Z,2.50
2018-07-24T11:37:59.079Z,2.70
2018-07-24T11:40:27.397Z,2.33
2018-07-24T11:42:55.709Z,2.70
2018-07-24T11:45:24.036Z,2.97
2018-07-24T11:47:52.373Z,3.30
2018-07-24T11:50:20.660Z,2.97
2018-07-24T11:52:48.988Z,2.77
2018-07-24T11:55:17.305Z,3.33
2018-07-24T11:57:45.747Z,3.70
2018-07-24T12:00:14.065Z,3.17
2018-07-24T12:02:42.424Z,3.03
2018-07-24T12:05:11.386Z,3.00
2018-07-24T12:07:40.359Z,2.67
2018-07-24T12:10:08.717Z,3.80
2018-07-24T12:12:37.031Z,2.97
2018-07-24T12:15:06.561Z,3.30
2018-07-24T12:17:34.864Z,2.40
2018-07-24T12:20:03.244Z,2.90
2018-07-24T12:22:31.621Z,3.03
2018-07-24T12:25:00.405Z,2.83
2018-07-24T12:27:28.701Z,2.90
2018-07-24T12:29:57.006Z,2.97
2018-07-24T12:32:25.340Z,2.70
2018-07-24T12:34:53.637Z,2.73
2018-07-24T12:37:21.937Z,3.00
2018-07-24T12:39:50.421Z,3.10
2018-07-24T12:42:19.326Z,2.77
2018-07-24T12:44:47.706Z,3.00
2018-07-24T12:47:16.008Z,2.60
2018-07-24T12:49:44.332Z,2.37
2018-07-24T12:52:12.663Z,3.00
2018-07-24T12:54:40.955Z,2.97
2018-07-24T12:57:09.338Z,3.13
2018-07-24T12:59:37.623Z,3.63
2018-07-24T13:02:06.026Z,3.40
2018-07-24T13:04:34.356Z,3.20
2018-07-24T13:07:02.693Z,2.97
2018-07-24T13:09:30.993Z,2.63
2018-07-24T13:11:59.307Z,2.57
2018-07-24T13:14:27.616Z,2.80
2018-07-24T13:16:55.951Z,2.90
2018-07-24T13:19:24.302Z,2.77
2018-07-24T13:21:52.572Z,2.77
2018-07-24T13:24:20.935Z,2.90
2018-07-24T13:26:49.212Z,3.40
2018-07-24T13:29:17.547Z,2.57
2018-07-24T13:31:45.867Z,2.70
2018-07-24T13:34:14.146Z,2.80
2018-07-24T13:36:42.452Z,2.97
2018-07-24T13:39:11.552Z,2.80
2018-07-24T13:41:40.140Z,2.87
2018-07-24T13:44:08.859Z,2.60
2018-07-24T13:46:37.200Z,3.37
2018-07-24T13:49:05.520Z,2.60
2018-07-24T13:51:33.867Z,2.50
2018-07-24T13:54:02.172Z,2.93
2018-07-24T13:56:30.468Z,3.23
2018-07-24T13:58:58.862Z,3.20
2018-07-24T14:01:27.124Z,2.50
2018-07-24T14:03:56.009Z,2.97
2018-07-24T14:06:24.300Z,2.33
2018-07-24T14:08:52.596Z,2.50
2018-07-24T14:11:20.911Z,2.50
2018-07-24T14:13:49.261Z,2.90
2018-07-24T14:16:17.656Z,2.73
2018-07-24T14:18:46.005Z,2.40
2018-07-24T14:21:14.314Z,2.20
2018-07-24T14:23:42.612Z,2.70
2018-07-24T14:26:10.919Z,2.60
2018-07-24T14:28:39.224Z,2.50
2018-07-24T14:31:07.638Z,2.30
2018-07-24T14:33:35.892Z,2.50
2018-07-24T14:36:04.240Z,2.60
2018-07-24T14:38:32.519Z,2.43
2018-07-24T14:41:00.840Z,2.97
2018-07-24T14:43:29.151Z,2.20
2018-07-24T14:45:57.444Z,2.10
2018-07-24T14:48:26.112Z,2.20
2018-07-24T14:50:54.457Z,1.90
2018-07-24T14:53:23.481Z,1.90
2018-07-24T14:55:51.776Z,2.17
2018-07-24T14:58:20.112Z,2.20
2018-07-24T15:00:48.420Z,1.80
2018-07-24T15:03:16.739Z,2.10
2018-07-24T15:05:45.048Z,2.27
2018-07-24T15:08:13.404Z,1.90
2018-07-24T15:10:41.728Z,2.10
2018-07-24T15:13:10.021Z,2.13
2018-07-24T15:15:38.364Z,1.70
2018-07-24T15:18:06.651Z,1.80
2018-07-24T15:20:34.960Z,1.70
2018-07-24T15:23:03.268Z,2.43
2018-07-24T15:25:31.573Z,2.40
2018-07-24T15:27:59.887Z,2.00
2018-07-24T15:30:28.200Z,2.33
2018-07-24T15:32:56.523Z,1.97
2018-07-24T15:35:24.848Z,2.03
2018-07-24T15:37:53.177Z,2.13
2018-07-24T15:40:21.571Z,1.97
2018-07-24T15:42:49.896Z,2.23
2018-07-24T15:45:18.198Z,2.10
2018-07-24T15:47:46.528Z,1.93
2018-07-24T15:50:14.845Z,2.23
2018-07-24T15:52:43.155Z,2.00
2018-07-24T15:55:11.452Z,1.63
2018-07-24T15:57:39.804Z,1.70
2018-07-24T16:00:08.100Z,1.80
2018-07-24T16:02:36.423Z,2.40
2018-07-24T16:05:05.891Z,2.37
2018-07-24T16:07:34.232Z,2.10
2018-07-24T16:10:02.553Z,2.00
2018-07-24T16:12:30.861Z,2.30
2018-07-24T16:14:59.732Z,2.20
2018-07-24T16:17:28.036Z,2.40
2018-07-24T16:19:56.340Z,2.20
2018-07-24T16:22:24.679Z,2.07
2018-07-24T16:24:53.371Z,2.00
2018-07-24T16:27:21.763Z,2.10
2018-07-24T16:29:50.046Z,1.87
2018-07-24T16:32:18.359Z,2.40
2018-07-24T16:34:46.702Z,2.30
2018-07-24T16:37:15.036Z,2.27
2018-07-24T16:39:43.357Z,1.90
2018-07-24T16:42:12.031Z,2.40
2018-07-24T16:44:40.356Z,1.93
2018-07-24T16:47:08.656Z,1.90
2018-07-24T16:49:37.003Z,2.30
2018-07-24T16:52:05.331Z,1.87
2018-07-24T16:54:33.615Z,2.00
2018-07-24T16:57:01.984Z,2.10
2018-07-24T16:59:30.268Z,2.23
2018-07-24T17:01:58.728Z,1.90
2018-07-24T17:04:27.020Z,2.13
2018-07-24T17:06:55.325Z,2.53
2018-07-24T17:09:23.627Z,1.90
2018-07-24T17:11:51.942Z,2.20
2018-07-24T17:14:20.669Z,2.47
2018-07-24T17:16:48.969Z,2.30
2018-07-24T17:19:17.296Z,2.93
2018-07-24T17:21:45.695Z,2.43
2018-07-24T17:24:14.005Z,2.50
2018-07-24T17:26:42.312Z,2.53
2018-07-24T17:29:10.663Z,2.80
2018-07-24T17:31:38.973Z,3.30
2018-07-24T17:34:07.265Z,3.17
2018-07-24T17:36:35.593Z,3.27
2018-07-24T17:39:05.787Z,3.03
2018-07-24T17:41:34.101Z,2.77
2018-07-24T17:44:02.460Z,3.03
2018-07-24T17:46:30.808Z,3.10
2018-07-24T17:48:59.100Z,3.10
2018-07-24T17:51:27.436Z,3.17
2018-07-24T17:53:55.743Z,3.37
2018-07-24T17:56:24.048Z,3.37
2018-07-24T17:58:52.360Z,3.13
2018-07-24T18:01:20.661Z,3.20
2018-07-24T18:03:48.963Z,3.77
2018-07-24T18:06:17.296Z,3.10
2018-07-24T18:08:46.935Z,3.23
2018-07-24T18:11:15.240Z,3.00
2018-07-24T18:13:43.560Z,3.30
2018-07-24T18:16:11.860Z,2.73
2018-07-24T18:18:40.203Z,3.33
2018-07-24T18:21:08.532Z,3.70
2018-07-24T18:23:36.893Z,3.60
2018-07-24T18:26:05.307Z,3.33
2018-07-24T18:28:33.615Z,3.90
2018-07-24T18:31:01.939Z,4.07
2018-07-24T18:33:30.280Z,3.50
2018-07-24T18:35:58.576Z,3.50
2018-07-24T18:38:26.947Z,3.53
2018-07-24T18:40:55.289Z,3.97
2018-07-24T18:43:23.580Z,3.50
2018-07-24T18:45:52.552Z,3.60
2018-07-24T18:48:20.872Z,5.43
2018-07-24T18:50:49.167Z,3.73
2018-07-24T18:53:17.576Z,4.47
2018-07-24T18:55:46.619Z,4.40
2018-07-24T18:58:15.300Z,3.90
2018-07-24T19:00:43.804Z,4.53
2018-07-24T19:03:12.140Z,4.50
2018-07-24T19:05:40.956Z,3.67
2018-07-24T19:08:09.277Z,4.10
2018-07-24T19:10:37.856Z,4.20
2018-07-24T19:13:06.185Z,4.10
2018-07-24T19:15:34.480Z,3.77
2018-07-24T19:18:02.839Z,4.53
2018-07-24T19:20:31.100Z,4.57
2018-07-24T19:22:59.444Z,5.07
2018-07-24T19:25:27.777Z,4.60
2018-07-24T19:27:56.207Z,4.57
2018-07-24T19:30:24.500Z,4.33
2018-07-24T19:32:52.803Z,4.40
2018-07-24T19:35:21.166Z,4.80
2018-07-24T19:37:49.832Z,4.50
2018-07-24T19:40:18.196Z,4.93
2018-07-24T19:42:46.524Z,4.67
2018-07-24T19:45:14.932Z,5.23
2018-07-24T19:47:43.972Z,4.80
2018-07-24T19:50:12.280Z,4.33
2018-07-24T19:52:40.599Z,6.60
2018-07-24T19:55:09.575Z,6.10
2018-07-24T19:57:38.081Z,5.03
2018-07-24T20:00:08.100Z,4.50
2018-07-24T20:02:36.445Z,5.37
2018-07-24T20:05:05.360Z,5.20
2018-07-24T20:07:33.744Z,4.80
2018-07-24T20:10:02.148Z,5.77
2018-07-24T20:12:31.153Z,5.33
2018-07-24T20:14:59.474Z,4.93
2018-07-24T20:17:27.859Z,5.90
2018-07-24T20:19:56.204Z,5.07
2018-07-24T20:22:24.579Z,5.10
2018-07-24T20:24:52.908Z,5.43
2018-07-24T20:27:21.236Z,5.10
2018-07-24T20:29:49.556Z,5.30
2018-07-24T20:32:17.911Z,4.60
2018-07-24T20:34:46.300Z,5.50
2018-07-24T20:37:14.691Z,4.83
2018-07-24T20:39:43.523Z,5.17
2018-07-24T20:42:11.904Z,5.10
2018-07-24T20:44:40.285Z,4.47
2018-07-24T20:47:08.613Z,4.93
2018-07-24T20:49:36.936Z,4.67
2018-07-24T20:52:05.293Z,5.23
2018-07-24T20:54:33.658Z,5.33
2018-07-24T20:57:01.966Z,5.53
2018-07-24T20:59:30.259Z,5.90
2018-07-24T21:01:58.652Z,4.73
2018-07-24T21:04:27.040Z,4.93
2018-07-24T21:06:55.359Z,4.83
2018-07-24T21:09:23.781Z,4.73
2018-07-24T21:11:52.263Z,5.50
2018-07-24T21:14:20.624Z,5.87
2018-07-24T21:16:48.939Z,5.23
2018-07-24T21:19:17.699Z,5.70
2018-07-24T21:21:46.603Z,5.23
2018-07-24T21:24:14.972Z,4.80
2018-07-24T21:26:43.427Z,5.00
2018-07-24T21:29:11.752Z,4.90
2018-07-24T21:31:40.124Z,5.50
2018-07-24T21:34:08.627Z,5.70
2018-07-24T21:36:36.944Z,5.20
2018-07-24T21:39:07.847Z,6.00
2018-07-24T21:41:36.684Z,5.77
2018-07-24T21:44:05.130Z,4.50
2018-07-24T21:46:33.558Z,5.27
2018-07-24T21:49:02.060Z,5.30
2018-07-24T21:51:30.628Z,5.43
2018-07-24T21:53:58.989Z,5.40
2018-07-24T21:56:27.289Z,5.50
2018-07-24T21:58:55.599Z,5.80
2018-07-24T22:01:25.256Z,5.80
2018-07-24T22:03:53.589Z,5.63
2018-07-24T22:06:21.931Z,5.50
2018-07-24T22:08:50.336Z,6.00
2018-07-24T22:11:18.548Z,6.40
2018-07-24T22:13:46.852Z,5.70
2018-07-24T22:16:15.157Z,5.80
2018-07-24T22:18:43.936Z,5.70
2018-07-24T22:21:12.237Z,5.60
2018-07-24T22:23:40.558Z,5.90
2018-07-24T22:26:08.864Z,6.00
2018-07-24T22:28:37.160Z,6.40
2018-07-24T22:31:05.544Z,6.70
2018-07-24T22:33:33.841Z,6.37
2018-07-24T22:36:02.159Z,6.80
2018-07-24T22:38:30.456Z,5.20
2018-07-24T22:40:58.778Z,6.70
2018-07-24T22:43:27.080Z,6.47
2018-07-24T22:45:55.379Z,6.00
2018-07-24T22:48:23.698Z,6.90
2018-07-24T22:50:52.012Z,7.13
2018-07-24T22:53:20.319Z,7.73
2018-07-24T22:55:48.619Z,7.60
2018-07-24T22:58:17.279Z,6.97
2018-07-24T23:00:45.564Z,7.10
2018-07-24T23:03:13.876Z,6.87
2018-07-24T23:05:42.189Z,7.77
2018-07-24T23:08:10.507Z,7.63
2018-07-24T23:10:39.355Z,7.60
2018-07-24T23:13:07.684Z,6.23
2018-07-24T23:15:36.010Z,8.20
2018-07-24T23:18:04.360Z,8.40
2018-07-24T23:20:32.694Z,7.97
2018-07-24T23:23:00.992Z,7.30
2018-07-24T23:25:29.320Z,7.83
2018-07-24T23:27:57.627Z,8.07
2018-07-24T23:30:25.923Z,7.00
2018-07-24T23:32:54.231Z,7.30
2018-07-24T23:35:22.542Z,7.33
2018-07-24T23:37:50.878Z,7.40
2018-07-24T23:40:19.246Z,8.57
2018-07-24T23:42:47.581Z,7.30
2018-07-24T23:45:15.896Z,7.90
2018-07-24T23:47:44.191Z,7.73
2018-07-24T23:50:13.147Z,7.90
2018-07-24T23:52:41.447Z,7.77
2018-07-24T23:55:10.127Z,8.30
2018-07-24T23:57:38.437Z,7.90
